Pagrindinis puslapis
METAR-TAF:

METAR-TAF

Oro uostai :

Vamdrup

Koldingas, Danija

platuma: 55-26N, ilguma: 009-20E, Aukštis: 44 m

Dabartinis oras

Ataskaita buvo paskelbta 41 minutes, ne 22:50 UTC
Vėjas 5 kt iš Rytų/Pietryčių
Temperatūra 15°C
Drėgmė 77%
Slėgis 1019 hPa

METAR: EKVD 022250Z AUTO 12005KT //// ///////// 15/11 Q1019

Laikas: 01:31 (23:31 UTC)

Prognozė

Ataskaita buvo paskelbta 14 valandos ir 39 minutes, ne 08:52 UTC
Prognozė galioja nuo 02 metu 09 UTC su 02 metu 15 UTC
Vėjas 12 kt iš Pietvakarių
Matomumas 10 km arba daugiau
Išsisklaidę debesys ne aukštis 3000 ft
Laikinai
nuo 02 metu 09 UTC su 02 metu 15 UTC
Išsisklaidę debesys ne aukštis 2500 ft, aukštai iškilę kamuoliniai debesys.
lietus

TAF: EKVD 020852Z 0209/0215 22012KT 9999 SCT030 TEMPO 0209/0215 -SHRA SCT025TCU

Orai ataskaitas ir orų prognozės (METAR, TAF).

turimą stotys yra geltonos ir raudonos taškus žemėlapyje.

Perkelti pele per norėdami pamatyti stoties vardą.

Tada spustelėkite, norėdami matyti oro stebėjimo ir prognozės.

Norėdami pakeisti žemėlapį: spustelėkite ant žalios mygtukų su juodo kryžiaus žemyn,; žalią mygtuką su brūkšneliu, jei norite nutolinti; arba žalių rodyklių gretimoms žemėlapius.


METAR-TAF: